createdAt,value
2023-02-12T00:00:30.042Z,86.20
2023-02-12T00:02:58.489Z,86.21
2023-02-12T00:05:26.813Z,86.49
2023-02-12T00:07:55.169Z,86.49
2023-02-12T00:10:23.237Z,86.39
2023-02-12T00:12:51.978Z,86.26
2023-02-12T00:15:21.723Z,85.91
2023-02-12T00:17:49.781Z,85.71
2023-02-12T00:20:17.924Z,85.55
2023-02-12T00:22:46.270Z,86.14
2023-02-12T00:25:15.143Z,85.69
2023-02-12T00:27:42.917Z,85.55
2023-02-12T00:30:11.831Z,85.92
2023-02-12T00:32:42.397Z,86.45
2023-02-12T00:35:10.987Z,85.33
2023-02-12T00:37:38.931Z,85.77
2023-02-12T00:40:08.176Z,85.87
2023-02-12T00:42:36.424Z,85.46
2023-02-12T00:45:05.078Z,86.21
2023-02-12T00:47:32.880Z,85.35
2023-02-12T00:50:02.195Z,85.85
2023-02-12T00:52:30.650Z,85.02
2023-02-12T00:54:58.924Z,85.69
2023-02-12T00:57:26.748Z,85.47
2023-02-12T00:59:55.073Z,85.34
2023-02-12T01:02:23.133Z,85.60
2023-02-12T01:04:51.079Z,86.09
2023-02-12T01:07:21.394Z,86.14
2023-02-12T01:09:49.213Z,86.19
2023-02-12T01:12:17.140Z,85.96
2023-02-12T01:14:45.484Z,86.02
2023-02-12T01:17:13.802Z,86.45
2023-02-12T01:19:42.785Z,85.83
2023-02-12T01:22:11.034Z,85.51
2023-02-12T01:24:40.628Z,85.95
2023-02-12T01:27:08.375Z,85.61
2023-02-12T01:29:36.680Z,85.84
2023-02-12T01:32:05.399Z,86.02
2023-02-12T01:34:34.722Z,85.62
2023-02-12T01:37:02.824Z,86.18
2023-02-12T01:39:30.757Z,85.85
2023-02-12T01:42:00.228Z,85.63
2023-02-12T01:44:30.601Z,86.79
2023-02-12T01:47:00.316Z,86.21
2023-02-12T01:49:31.866Z,85.93
2023-02-12T01:52:02.646Z,86.52
2023-02-12T01:54:30.652Z,85.69
2023-02-12T01:57:00.429Z,86.31
2023-02-12T01:59:28.339Z,86.54
2023-02-12T02:01:56.211Z,86.08
2023-02-12T02:04:27.222Z,86.00
2023-02-12T02:06:58.533Z,85.81
2023-02-12T02:09:27.181Z,85.91
2023-02-12T02:12:12.585Z,86.31
2023-02-12T02:14:42.587Z,86.21
2023-02-12T02:17:28.760Z,85.87
2023-02-12T02:20:35.798Z,85.71
2023-02-12T02:23:17.914Z,85.74
2023-02-12T02:26:11.827Z,85.84
2023-02-12T02:29:00.114Z,86.30
2023-02-12T02:31:34.342Z,86.15
2023-02-12T02:34:05.228Z,86.29
2023-02-12T02:36:36.636Z,85.95
2023-02-12T02:39:07.793Z,86.60
2023-02-12T02:41:39.457Z,85.83
2023-02-12T02:44:11.701Z,85.99
2023-02-12T02:46:44.625Z,85.92
2023-02-12T02:49:16.027Z,86.73
2023-02-12T02:51:46.229Z,85.85
2023-02-12T02:54:16.293Z,86.13
2023-02-12T02:56:47.320Z,86.27
2023-02-12T02:59:19.277Z,85.77
2023-02-12T03:01:51.385Z,85.85
2023-02-12T03:04:22.154Z,85.97
2023-02-12T03:06:56.789Z,85.27
2023-02-12T03:09:27.761Z,85.25
2023-02-12T03:12:00.127Z,85.21
2023-02-12T03:14:30.200Z,85.66
2023-02-12T03:17:01.473Z,85.10
2023-02-12T03:19:32.247Z,85.13
2023-02-12T03:22:02.475Z,84.93
2023-02-12T03:24:36.082Z,84.72
2023-02-12T03:27:07.591Z,84.68
2023-02-12T03:29:35.443Z,84.04
2023-02-12T03:32:17.508Z,84.68
2023-02-12T03:34:50.348Z,84.03
2023-02-12T03:37:22.130Z,84.01
2023-02-12T03:39:54.622Z,83.43
2023-02-12T03:42:28.758Z,84.42
2023-02-12T03:44:58.723Z,84.65
2023-02-12T03:47:36.892Z,84.42
2023-02-12T03:50:10.808Z,84.76
2023-02-12T03:52:38.802Z,83.85
2023-02-12T03:55:08.320Z,83.55
2023-02-12T03:57:40.636Z,83.58
2023-02-12T04:00:11.232Z,84.08
2023-02-12T04:02:40.629Z,83.99
2023-02-12T04:05:15.727Z,84.32
2023-02-12T04:07:43.625Z,83.83
2023-02-12T04:10:12.103Z,84.26
2023-02-12T04:12:42.392Z,84.18
2023-02-12T04:15:20.963Z,84.08
2023-02-12T04:17:52.632Z,83.62
2023-02-12T04:20:27.920Z,84.24
2023-02-12T04:23:03.234Z,83.92
2023-02-12T04:25:47.541Z,83.36
2023-02-12T04:28:21.699Z,83.51
2023-02-12T04:30:55.922Z,83.17
2023-02-12T04:33:27.153Z,83.82
2023-02-12T04:36:01.894Z,84.01
2023-02-12T04:38:33.566Z,83.67
2023-02-12T04:41:01.621Z,83.93
2023-02-12T04:43:30.450Z,83.22
2023-02-12T04:45:58.575Z,83.27
2023-02-12T04:48:27.961Z,83.70
2023-02-12T04:50:55.756Z,83.90
2023-02-12T04:53:23.510Z,83.16
2023-02-12T04:55:51.320Z,83.69
2023-02-12T04:58:19.392Z,84.04
2023-02-12T05:00:47.124Z,83.52
2023-02-12T05:03:14.889Z,83.51
2023-02-12T05:05:44.044Z,83.94
2023-02-12T05:08:11.799Z,83.04
2023-02-12T05:10:39.563Z,83.27
2023-02-12T05:13:07.316Z,83.04
2023-02-12T05:15:35.098Z,83.22
2023-02-12T05:18:02.897Z,82.88
2023-02-12T05:20:30.669Z,83.01
2023-02-12T05:22:59.801Z,83.58
2023-02-12T05:25:27.639Z,82.83
2023-02-12T05:27:56.714Z,83.91
2023-02-12T05:30:24.574Z,83.77
2023-02-12T05:32:52.350Z,83.57
2023-02-12T05:35:20.093Z,83.93
2023-02-12T05:37:47.936Z,83.03
2023-02-12T05:40:17.895Z,83.08
2023-02-12T05:42:45.694Z,83.48
2023-02-12T05:45:13.422Z,83.76
2023-02-12T05:47:41.195Z,83.60
2023-02-12T05:50:09.636Z,83.69
2023-02-12T05:52:37.391Z,82.83
2023-02-12T05:55:05.607Z,82.91
2023-02-12T05:57:34.758Z,83.30
2023-02-12T06:00:02.571Z,82.87
2023-02-12T06:02:30.437Z,83.10
2023-02-12T06:04:58.205Z,83.15
2023-02-12T06:07:26.035Z,82.77
2023-02-12T06:09:54.997Z,83.02
2023-02-12T06:12:22.769Z,82.66
2023-02-12T06:14:52.363Z,82.88
2023-02-12T06:17:20.147Z,82.30
2023-02-12T06:19:47.965Z,82.56
2023-02-12T06:22:15.726Z,82.63
2023-02-12T06:24:43.526Z,83.23
2023-02-12T06:27:11.275Z,82.83
2023-02-12T06:29:39.062Z,82.85
2023-02-12T06:32:08.638Z,82.52
2023-02-12T06:34:36.518Z,82.53
2023-02-12T06:37:04.302Z,82.74
2023-02-12T06:39:32.142Z,82.73
2023-02-12T06:41:59.986Z,82.78
2023-02-12T06:44:27.796Z,83.28
2023-02-12T06:46:55.646Z,82.88
2023-02-12T06:49:24.850Z,83.37
2023-02-12T06:51:52.633Z,83.25
2023-02-12T06:54:20.461Z,82.99
2023-02-12T06:56:48.289Z,83.35
2023-02-12T06:59:17.432Z,83.12
2023-02-12T07:01:45.303Z,83.05
2023-02-12T07:04:13.255Z,82.51
2023-02-12T07:06:42.505Z,82.57
2023-02-12T07:09:10.365Z,82.75
2023-02-12T07:11:38.869Z,82.63
2023-02-12T07:14:06.754Z,82.24
2023-02-12T07:16:34.707Z,82.38
2023-02-12T07:19:02.525Z,82.74
2023-02-12T07:21:31.847Z,82.98
2023-02-12T07:24:01.204Z,82.94
2023-02-12T07:26:29.129Z,82.46
2023-02-12T07:28:58.263Z,82.66
2023-02-12T07:31:26.104Z,82.27
2023-02-12T07:33:55.275Z,82.48
2023-02-12T07:36:23.756Z,82.86
2023-02-12T07:38:51.928Z,82.70
2023-02-12T07:41:22.618Z,82.46
2023-02-12T07:43:55.161Z,82.82
2023-02-12T07:46:26.337Z,82.39
2023-02-12T07:48:54.150Z,82.90
2023-02-12T07:51:21.950Z,82.29
2023-02-12T07:53:50.244Z,82.89
2023-02-12T07:56:21.577Z,82.41
2023-02-12T07:58:50.924Z,83.11
2023-02-12T08:01:20.945Z,82.90
2023-02-12T08:03:50.030Z,82.44
2023-02-12T08:06:19.449Z,82.83
2023-02-12T08:08:47.219Z,82.58
2023-02-12T08:11:15.943Z,82.17
2023-02-12T08:13:45.524Z,82.38
2023-02-12T08:16:14.547Z,82.02
2023-02-12T08:18:43.206Z,82.24
2023-02-12T08:21:12.689Z,82.64
2023-02-12T08:23:40.765Z,82.39
2023-02-12T08:26:11.493Z,82.85
2023-02-12T08:28:45.315Z,82.80
2023-02-12T08:31:16.283Z,82.76
2023-02-12T08:33:45.985Z,83.19
2023-02-12T08:36:15.687Z,83.06
2023-02-12T08:38:44.340Z,83.06
2023-02-12T08:41:13.377Z,82.95
2023-02-12T08:43:42.055Z,82.75
2023-02-12T08:46:12.843Z,82.70
2023-02-12T08:48:42.804Z,82.76
2023-02-12T08:51:12.839Z,83.11
2023-02-12T08:53:41.973Z,83.04
2023-02-12T08:56:10.733Z,83.18
2023-02-12T08:58:39.018Z,82.86
2023-02-12T09:01:11.016Z,83.04
2023-02-12T09:03:39.005Z,83.18
2023-02-12T09:06:09.033Z,82.98
2023-02-12T09:08:37.559Z,83.03
2023-02-12T09:11:06.300Z,83.04
2023-02-12T09:13:34.109Z,83.01
2023-02-12T09:16:02.304Z,83.25
2023-02-12T09:18:30.357Z,83.49
2023-02-12T09:21:05.090Z,83.47
2023-02-12T09:23:34.630Z,83.96
2023-02-12T09:26:05.644Z,84.43
2023-02-12T09:28:33.839Z,84.14
2023-02-12T09:31:06.900Z,84.94
2023-02-12T09:33:34.988Z,85.25
2023-02-12T09:36:04.217Z,84.79
2023-02-12T09:38:34.124Z,85.20
2023-02-12T09:41:30.022Z,85.06
2023-02-12T09:44:00.529Z,84.94
2023-02-12T09:46:31.476Z,84.76
2023-02-12T09:49:09.682Z,85.32
2023-02-12T09:51:38.196Z,85.07
2023-02-12T09:54:11.037Z,85.29
2023-02-12T09:56:40.018Z,85.05
2023-02-12T09:59:09.308Z,85.08
2023-02-12T10:01:37.211Z,84.94
2023-02-12T10:04:06.348Z,84.97
2023-02-12T10:06:38.795Z,84.78
2023-02-12T10:09:23.014Z,85.33
2023-02-12T10:11:56.574Z,85.06
2023-02-12T10:14:51.114Z,85.37
2023-02-12T10:17:25.501Z,85.72
2023-02-12T10:20:30.965Z,85.37
2023-02-12T10:23:04.821Z,85.79
2023-02-12T10:25:38.030Z,86.27
2023-02-12T10:28:10.355Z,86.01
2023-02-12T10:30:42.402Z,86.63
2023-02-12T10:33:14.980Z,86.94
2023-02-12T10:35:46.116Z,86.69
2023-02-12T10:38:17.733Z,86.94
2023-02-12T10:40:47.182Z,87.07
2023-02-12T10:43:15.664Z,86.87
2023-02-12T10:45:44.831Z,86.96
2023-02-12T10:48:14.956Z,86.66
2023-02-12T10:50:50.148Z,86.29
2023-02-12T10:53:22.069Z,86.55
2023-02-12T10:55:51.427Z,86.58
2023-02-12T10:58:22.254Z,86.24
2023-02-12T11:00:58.011Z,86.05
2023-02-12T11:03:30.552Z,85.92
2023-02-12T11:05:58.659Z,85.72
2023-02-12T11:08:31.145Z,86.18
2023-02-12T11:11:09.487Z,85.34
2023-02-12T11:13:38.944Z,85.41
2023-02-12T11:16:07.461Z,84.82
2023-02-12T11:18:37.343Z,85.02
2023-02-12T11:21:07.028Z,84.65
2023-02-12T11:23:37.890Z,84.92
2023-02-12T11:26:10.768Z,84.81
2023-02-12T11:28:38.765Z,84.79
2023-02-12T11:31:22.665Z,84.23
2023-02-12T11:53:01.805Z,83.94
2023-02-12T11:55:33.629Z,83.72
2023-02-12T11:58:06.379Z,83.28
2023-02-12T12:00:39.028Z,83.48
2023-02-12T12:03:13.280Z,83.12
2023-02-12T12:05:45.779Z,82.99
2023-02-12T12:08:27.125Z,83.48
2023-02-12T12:10:58.320Z,83.26
2023-02-12T12:13:33.705Z,83.48
2023-02-12T12:16:27.598Z,83.52
2023-02-12T12:19:15.309Z,83.14
2023-02-12T12:21:47.114Z,82.69
2023-02-12T12:24:18.001Z,82.60
2023-02-12T12:26:48.138Z,82.53
2023-02-12T12:29:22.623Z,82.09
2023-02-12T12:31:54.901Z,81.93
2023-02-12T12:34:24.087Z,81.95
2023-02-12T12:37:18.674Z,81.06
2023-02-12T12:39:59.683Z,80.70
2023-02-12T12:42:57.270Z,81.08
2023-02-12T12:45:41.227Z,80.97
2023-02-12T12:48:20.804Z,80.95
2023-02-12T12:51:03.639Z,81.08
2023-02-12T12:53:39.850Z,80.90
2023-02-12T12:56:46.841Z,81.13
2023-02-12T12:59:35.859Z,80.94
2023-02-12T13:02:39.396Z,80.87
2023-02-12T13:05:34.770Z,79.71
2023-02-12T13:08:05.740Z,79.77
2023-02-12T13:10:35.664Z,80.03
2023-02-12T13:13:10.675Z,79.65
2023-02-12T13:15:40.725Z,78.83
2023-02-12T13:18:18.582Z,78.78
2023-02-12T13:20:52.208Z,78.57
2023-02-12T13:23:25.572Z,78.71
2023-02-12T13:25:58.932Z,78.21
2023-02-12T13:28:35.259Z,78.26
2023-02-12T13:31:09.489Z,77.48
2023-02-12T13:33:47.903Z,77.79
2023-02-12T13:36:17.078Z,77.71
2023-02-12T13:38:48.523Z,77.94
2023-02-12T13:41:17.189Z,77.32
2023-02-12T13:43:50.482Z,77.04
2023-02-12T13:46:26.226Z,76.80
2023-02-12T13:49:01.874Z,76.79
2023-02-12T13:51:40.904Z,77.50
2023-02-12T13:54:18.301Z,77.59
2023-02-12T13:56:48.226Z,77.74
2023-02-12T13:59:50.691Z,77.72
2023-02-12T14:02:44.013Z,77.91
2023-02-12T14:05:22.084Z,77.53
2023-02-12T14:07:53.200Z,77.86
2023-02-12T14:10:23.873Z,78.28
2023-02-12T14:12:52.278Z,78.17
2023-02-12T14:15:31.654Z,78.12
2023-02-12T14:18:22.316Z,78.13
2023-02-12T14:20:51.750Z,78.00
2023-02-12T14:23:25.878Z,77.86
2023-02-12T14:26:04.922Z,78.08
2023-02-12T14:28:48.764Z,78.06
2023-02-12T14:31:31.891Z,77.69
2023-02-12T14:34:49.200Z,78.01
2023-02-12T14:37:19.859Z,77.61
2023-02-12T14:39:48.987Z,77.60
2023-02-12T14:42:45.020Z,77.49
2023-02-12T14:45:31.189Z,78.41
2023-02-12T14:47:59.185Z,78.20
2023-02-12T14:50:30.924Z,78.45
2023-02-12T14:53:05.957Z,78.71
2023-02-12T14:55:36.345Z,79.15
2023-02-12T14:58:06.402Z,78.96
2023-02-12T15:00:37.530Z,78.71
2023-02-12T15:03:18.062Z,78.72
2023-02-12T15:05:51.518Z,78.37
2023-02-12T15:08:31.134Z,78.52
2023-02-12T15:11:10.650Z,78.43
2023-02-12T15:13:47.463Z,78.65
2023-02-12T15:16:22.150Z,79.39
2023-02-12T15:18:53.575Z,79.46
2023-02-12T15:21:23.701Z,79.64
2023-02-12T15:24:02.896Z,79.68
2023-02-12T15:26:34.346Z,79.82
2023-02-12T15:29:02.316Z,79.80
2023-02-12T15:31:31.511Z,80.17
2023-02-12T15:34:02.887Z,80.00
2023-02-12T15:36:33.236Z,80.04
2023-02-12T15:39:04.156Z,80.09
2023-02-12T15:41:43.692Z,80.18
2023-02-12T15:44:24.187Z,80.16
2023-02-12T15:47:00.797Z,79.78
2023-02-12T15:49:31.925Z,79.68
2023-02-12T15:52:00.476Z,79.31
2023-02-12T15:54:28.565Z,79.26
2023-02-12T15:56:57.808Z,78.99
2023-02-12T15:59:29.265Z,78.75
2023-02-12T16:02:00.563Z,78.41
2023-02-12T16:04:31.006Z,78.48
2023-02-12T16:06:59.813Z,78.03
2023-02-12T16:09:30.717Z,78.01
2023-02-12T16:12:01.941Z,77.84
2023-02-12T16:14:36.634Z,77.95
2023-02-12T16:17:04.393Z,78.01
2023-02-12T16:19:33.984Z,77.89
2023-02-12T16:22:08.081Z,77.87
2023-02-12T16:24:37.837Z,77.88
2023-02-12T16:27:09.487Z,77.81
2023-02-12T16:29:39.976Z,77.98
2023-02-12T16:32:07.779Z,77.91
2023-02-12T16:34:37.127Z,77.59
2023-02-12T16:37:32.918Z,77.51
2023-02-12T16:40:27.218Z,77.90
2023-02-12T16:43:25.153Z,77.61
2023-02-12T16:46:05.862Z,77.85
2023-02-12T16:48:38.545Z,78.04
2023-02-12T16:51:06.535Z,77.95
2023-02-12T16:53:42.987Z,78.06
2023-02-12T16:56:16.760Z,78.03
2023-02-12T16:58:46.879Z,77.99
2023-02-12T17:01:19.253Z,77.96
2023-02-12T17:03:50.422Z,77.81
2023-02-12T17:06:20.213Z,77.87
2023-02-12T17:08:47.980Z,77.84
2023-02-12T17:11:17.794Z,77.84
2023-02-12T17:13:48.223Z,77.94
2023-02-12T17:16:29.936Z,77.69
2023-02-12T17:18:58.378Z,77.65
2023-02-12T17:21:27.957Z,77.91
2023-02-12T17:23:55.686Z,77.88
2023-02-12T17:26:23.994Z,77.62
2023-02-12T17:28:53.089Z,77.84
2023-02-12T17:31:21.287Z,78.29
2023-02-12T17:33:49.068Z,78.19
2023-02-12T17:36:16.855Z,78.32
2023-02-12T17:38:47.475Z,78.17
2023-02-12T17:41:15.225Z,78.12
2023-02-12T17:43:42.958Z,78.05
2023-02-12T17:46:14.183Z,78.46
2023-02-12T17:48:41.930Z,78.03
2023-02-12T17:51:11.553Z,78.31
2023-02-12T17:53:39.340Z,78.40
2023-02-12T17:56:11.265Z,78.17
2023-02-12T17:58:39.476Z,78.77
2023-02-12T18:01:08.000Z,78.70
2023-02-12T18:03:37.525Z,78.35
2023-02-12T18:06:06.945Z,78.98
2023-02-12T18:08:34.952Z,78.71
2023-02-12T18:11:06.475Z,79.30
2023-02-12T18:13:34.278Z,78.63
2023-02-12T18:16:02.411Z,78.78
2023-02-12T18:18:30.135Z,79.02
2023-02-12T18:20:59.475Z,79.57
2023-02-12T18:23:27.354Z,79.08
2023-02-12T18:25:55.094Z,79.89
2023-02-12T18:28:22.912Z,80.04
2023-02-12T18:30:57.083Z,79.75
2023-02-12T18:33:25.351Z,80.11
2023-02-12T18:36:02.802Z,79.88
2023-02-12T18:38:31.077Z,80.27
2023-02-12T18:40:59.777Z,80.06
2023-02-12T18:43:27.597Z,80.67
2023-02-12T18:45:55.694Z,80.90
2023-02-12T18:48:23.437Z,80.70
2023-02-12T18:50:53.144Z,80.48
2023-02-12T18:53:22.342Z,80.92
2023-02-12T18:55:50.660Z,80.83
2023-02-12T18:58:18.405Z,81.44
2023-02-12T19:00:46.105Z,81.73
2023-02-12T19:03:13.839Z,82.29
2023-02-12T19:05:41.543Z,82.10
2023-02-12T19:08:09.381Z,83.10
2023-02-12T19:10:41.270Z,83.08
2023-02-12T19:13:09.057Z,83.32
2023-02-12T19:15:39.526Z,83.93
2023-02-12T19:18:07.398Z,83.43
2023-02-12T19:20:35.170Z,83.89
2023-02-12T19:23:02.883Z,84.43
2023-02-12T19:25:30.632Z,83.81
2023-02-12T19:27:59.781Z,83.94
2023-02-12T19:30:27.569Z,84.28
2023-02-12T19:32:55.340Z,84.30
2023-02-12T19:35:23.053Z,84.15
2023-02-12T19:37:50.800Z,84.38
2023-02-12T19:40:18.766Z,85.06
2023-02-12T19:42:46.508Z,84.88
2023-02-12T19:45:16.035Z,84.31
2023-02-12T19:47:43.846Z,84.47
2023-02-12T19:50:11.852Z,84.90
2023-02-12T19:52:39.629Z,85.20
2023-02-12T19:55:07.653Z,84.64
2023-02-12T19:57:36.753Z,85.13
2023-02-12T20:00:07.425Z,85.01
2023-02-12T20:02:36.607Z,85.21
2023-02-12T20:05:04.445Z,84.74
2023-02-12T20:07:32.344Z,85.32
2023-02-12T20:10:00.090Z,85.71
2023-02-12T20:12:27.898Z,85.94
2023-02-12T20:14:56.575Z,85.76
2023-02-12T20:17:24.410Z,86.05
2023-02-12T20:19:53.633Z,86.03
2023-02-12T20:22:23.139Z,86.10
2023-02-12T20:24:52.328Z,85.88
2023-02-12T20:27:20.084Z,85.66
2023-02-12T20:29:47.851Z,85.73
2023-02-12T20:32:15.645Z,85.98
2023-02-12T20:34:50.819Z,86.08
2023-02-12T20:37:20.150Z,86.56
2023-02-12T20:39:48.298Z,86.07
2023-02-12T20:42:16.041Z,86.23
2023-02-12T20:44:43.840Z,85.50
2023-02-12T20:47:11.646Z,86.16
2023-02-12T20:49:39.616Z,86.28
2023-02-12T20:52:07.468Z,86.16
2023-02-12T20:54:38.063Z,86.33
2023-02-12T20:57:07.002Z,86.55
2023-02-12T20:59:34.746Z,85.95
2023-02-12T21:02:02.466Z,86.14
2023-02-12T21:04:32.178Z,86.42
2023-02-12T21:07:00.361Z,85.93
2023-02-12T21:09:28.401Z,86.09
2023-02-12T21:11:59.027Z,86.47
2023-02-12T21:14:27.060Z,86.06
2023-02-12T21:16:55.730Z,86.33
2023-02-12T21:19:23.777Z,86.49
2023-02-12T21:21:51.489Z,86.67
2023-02-12T21:24:21.736Z,86.33
2023-02-12T21:26:49.633Z,86.56
2023-02-12T21:29:19.139Z,86.31
2023-02-12T21:31:48.087Z,86.48
2023-02-12T21:34:18.715Z,86.21
2023-02-12T21:36:48.664Z,86.20
2023-02-12T21:39:24.412Z,86.14
2023-02-12T21:41:53.766Z,86.07
2023-02-12T21:44:24.016Z,86.25
2023-02-12T21:46:52.506Z,86.34
2023-02-12T21:49:24.973Z,86.55
2023-02-12T21:51:54.036Z,86.10
2023-02-12T21:54:22.497Z,86.31
2023-02-12T21:56:51.350Z,86.27
2023-02-12T21:59:19.652Z,86.73
2023-02-12T22:01:50.415Z,86.60
2023-02-12T22:04:19.300Z,86.25
2023-02-12T22:06:48.913Z,86.52
2023-02-12T22:09:18.354Z,86.83
2023-02-12T22:11:46.593Z,86.44
2023-02-12T22:14:18.732Z,86.95
2023-02-12T22:16:47.693Z,86.38
2023-02-12T22:19:17.402Z,86.95
2023-02-12T22:21:45.656Z,86.76
2023-02-12T22:24:15.927Z,86.38
2023-02-12T22:26:44.641Z,87.36
2023-02-12T22:29:14.229Z,87.19
2023-02-12T22:31:43.973Z,87.06
2023-02-12T22:34:13.829Z,87.01
2023-02-12T22:36:44.080Z,86.81
2023-02-12T22:39:13.880Z,87.08
2023-02-12T22:41:43.160Z,87.06
2023-02-12T22:44:12.757Z,87.30
2023-02-12T22:46:40.638Z,86.97
2023-02-12T22:49:08.847Z,86.89
2023-02-12T22:51:38.986Z,87.02
2023-02-12T22:54:08.796Z,86.79
2023-02-12T22:56:37.264Z,86.57
2023-02-12T22:59:04.999Z,87.30
2023-02-12T23:01:33.352Z,87.75
2023-02-12T23:04:01.584Z,87.04
2023-02-12T23:06:31.572Z,87.29
2023-02-12T23:09:01.387Z,87.41
2023-02-12T23:11:32.590Z,87.67
2023-02-12T23:14:00.732Z,87.37
2023-02-12T23:16:29.001Z,87.50
2023-02-12T23:18:57.713Z,87.44
2023-02-12T23:21:26.412Z,87.79
2023-02-12T23:23:54.519Z,87.64
2023-02-12T23:26:22.899Z,88.12
2023-02-12T23:28:52.906Z,87.70
2023-02-12T23:31:20.933Z,88.33
2023-02-12T23:33:48.827Z,88.07
2023-02-12T23:36:17.243Z,87.90
2023-02-12T23:38:45.135Z,87.39
2023-02-12T23:41:13.306Z,88.25
2023-02-12T23:43:42.505Z,87.41
2023-02-12T23:46:12.609Z,87.18
2023-02-12T23:48:44.507Z,87.47
2023-02-12T23:51:13.111Z,87.25
2023-02-12T23:53:41.202Z,87.89
2023-02-12T23:56:09.094Z,87.25
2023-02-12T23:58:37.673Z,86.78
